Time;durP1;ratioP1;P1;durP2;ratioP2;P2;SDS_P1;SDS_P2;PMS_P1;PMS_P2;Temp;Humidity;BMP_temperature;BMP_pressure;BME280_temperature;BME280_humidity;BME280_pressure;Samples;Min_cycle;Max_cycle;Signal;HPM_P1;HPM_P2
2020/12/02 00:01:38;;;;;;;14.00;10.70;;;0.70;98.00;;;;;;5028795;28;20433;-71
2020/12/02 00:17:33;;;;;;;9.48;7.43;;;0.70;98.00;;;;;;5027440;28;20095;-71
2020/12/02 00:19:59;;;;;;;11.90;9.00;;;0.70;98.00;;;;;;5038301;28;20037;-72
2020/12/02 00:22:25;;;;;;;11.07;8.30;;;0.70;98.00;;;;;;5031228;28;20029;-72
2020/12/02 00:24:52;;;;;;;9.50;7.78;;;0.70;98.00;;;;;;5030113;28;20029;-71
2020/12/02 00:27:25;;;;;;;12.25;9.43;;;0.70;98.00;;;;;;5029726;28;20081;-71
2020/12/02 00:29:51;;;;;;;11.60;9.13;;;0.70;98.00;;;;;;5029072;28;20033;-72
2020/12/02 00:32:32;;;;;;;12.57;9.27;;;0.70;98.00;;;;;;5028137;28;20030;-71
2020/12/02 00:34:59;;;;;;;15.40;9.88;;;0.60;98.00;;;;;;5029307;28;20034;-71
2020/12/02 00:37:27;;;;;;;11.80;8.45;;;0.70;98.00;;;;;;5030473;28;20038;-71
2020/12/02 00:39:53;;;;;;;11.40;8.63;;;0.70;98.00;;;;;;5029297;28;20121;-71
2020/12/02 00:42:20;;;;;;;12.10;9.13;;;0.70;98.00;;;;;;5030919;28;20117;-71
2020/12/02 00:44:47;;;;;;;11.85;8.00;;;0.70;98.00;;;;;;5031246;28;20370;-71
2020/12/02 00:47:19;;;;;;;12.65;8.88;;;0.70;98.00;;;;;;5033233;28;20034;-71
2020/12/02 00:49:47;;;;;;;11.77;9.05;;;0.70;98.00;;;;;;5030298;28;20025;-71
2020/12/02 00:52:13;;;;;;;13.18;9.15;;;0.80;98.00;;;;;;5031376;28;20414;-71
2020/12/02 00:54:41;;;;;;;11.32;8.00;;;0.70;98.00;;;;;;5031359;28;20056;-72
2020/12/02 00:57:17;;;;;;;11.55;8.68;;;0.70;98.00;;;;;;5031972;28;20045;-71
2020/12/02 00:59:48;;;;;;;12.50;9.23;;;0.70;98.00;;;;;;5030373;28;20108;-72
2020/12/02 01:02:33;;;;;;;11.15;8.43;;;0.80;98.00;;;;;;5031439;28;20021;-71
2020/12/02 01:04:59;;;;;;;12.13;8.80;;;0.80;98.00;;;;;;5031487;28;20333;-72
2020/12/02 01:07:28;;;;;;;12.98;9.40;;;0.70;98.00;;;;;;5031930;28;20104;-71
2020/12/02 01:09:55;;;;;;;11.10;8.85;;;0.80;98.00;;;;;;5029301;28;20129;-71
2020/12/02 01:12:21;;;;;;;11.27;8.25;;;0.80;98.00;;;;;;5029870;28;20069;-71
2020/12/02 01:14:47;;;;;;;13.43;8.77;;;0.70;98.00;;;;;;5031004;28;20401;-71
2020/12/02 01:17:13;;;;;;;11.95;8.82;;;0.80;98.00;;;;;;5028818;28;20044;-72
2020/12/02 01:19:40;;;;;;;12.73;8.00;;;0.80;98.00;;;;;;5030906;28;20029;-72
2020/12/02 01:22:30;;;;;;;11.20;8.88;;;0.80;98.00;;;;;;5030675;28;20382;-72
2020/12/02 01:25:02;;;;;;;11.60;8.32;;;0.80;98.00;;;;;;5031054;28;20025;-72
2020/12/02 01:27:35;;;;;;;12.00;8.45;;;0.80;98.00;;;;;;5031204;28;20037;-72
2020/12/02 01:30:00;;;;;;;16.65;11.25;;;0.70;98.00;;;;;;5030923;28;21381;-72
2020/12/02 01:32:26;;;;;;;16.70;11.55;;;0.70;98.00;;;;;;5028765;28;20087;-72
2020/12/02 01:34:53;;;;;;;30.45;12.48;;;0.70;98.00;;;;;;5029439;28;20033;-71
2020/12/02 01:37:26;;;;;;;12.73;9.90;;;0.60;98.00;;;;;;5029822;28;20049;-72
2020/12/02 01:40:20;;;;;;;14.02;10.50;;;0.60;98.00;;;;;;5030659;28;20017;-71
2020/12/02 01:42:50;;;;;;;19.83;13.57;;;0.60;98.00;;;;;;5028181;28;20121;-71
2020/12/02 01:45:24;;;;;;;17.52;13.05;;;0.60;98.00;;;;;;5028591;28;20278;-71
2020/12/02 01:48:31;;;;;;;21.40;13.95;;;0.60;98.00;;;;;;5030468;28;20068;-71
2020/12/02 01:51:08;;;;;;;20.48;14.23;;;0.50;98.00;;;;;;5030232;28;20438;-71
2020/12/02 01:53:39;;;;;;;16.45;11.90;;;0.50;98.00;;;;;;5029796;28;20038;-72
2020/12/02 01:56:13;;;;;;;17.75;13.57;;;0.50;98.00;;;;;;5030245;28;20048;-71
2020/12/02 01:59:03;;;;;;;19.50;12.13;;;0.50;98.00;;;;;;5027874;28;20164;-71
2020/12/02 02:01:56;;;;;;;19.00;13.18;;;0.40;98.00;;;;;;5029716;28;20101;-71
2020/12/02 02:04:30;;;;;;;20.13;13.43;;;0.40;98.00;;;;;;5028558;28;20419;-71
2020/12/02 02:06:59;;;;;;;41.20;14.43;;;0.40;98.00;;;;;;5030840;28;20116;-71
2020/12/02 02:09:29;;;;;;;108.38;16.17;;;0.40;98.00;;;;;;5029059;28;20144;-71
2020/12/02 02:12:25;;;;;;;25.33;16.25;;;0.40;98.00;;;;;;5029093;28;20026;-70
2020/12/02 02:15:22;;;;;;;20.10;14.35;;;0.40;98.00;;;;;;5021143;28;20038;-72
2020/12/02 02:17:55;;;;;;;19.92;13.23;;;0.40;98.00;;;;;;5023047;28;20041;-72
2020/12/02 02:20:25;;;;;;;17.67;12.63;;;0.40;98.00;;;;;;5028654;28;20422;-71
2020/12/02 02:22:51;;;;;;;19.38;13.88;;;0.50;98.00;;;;;;5028786;28;20035;-71
2020/12/02 02:25:17;;;;;;;23.50;14.02;;;0.60;98.00;;;;;;5031954;28;20037;-71
2020/12/02 02:27:43;;;;;;;24.13;15.60;;;0.60;98.00;;;;;;5034126;28;20061;-71
2020/12/02 02:30:09;;;;;;;20.13;13.18;;;0.60;98.00;;;;;;5032731;28;20036;-71
2020/12/02 02:32:35;;;;;;;17.98;12.00;;;0.50;98.00;;;;;;5032680;28;20090;-71
2020/12/02 02:35:01;;;;;;;19.60;12.90;;;0.50;98.00;;;;;;5033716;28;20025;-71
2020/12/02 02:37:28;;;;;;;21.38;13.80;;;0.60;98.00;;;;;;5033813;28;20056;-73
2020/12/02 02:39:55;;;;;;;19.92;13.32;;;0.60;98.00;;;;;;5034045;28;20037;-71
2020/12/02 02:42:24;;;;;;;16.92;11.95;;;0.60;98.00;;;;;;5033299;28;20033;-72
2020/12/02 02:44:50;;;;;;;17.17;11.93;;;0.60;98.00;;;;;;5033534;28;20057;-71
2020/12/02 02:47:16;;;;;;;16.73;12.20;;;0.60;98.00;;;;;;5033174;28;20423;-71
2020/12/02 02:49:44;;;;;;;17.30;12.70;;;0.70;98.00;;;;;;5032985;28;20034;-71
2020/12/02 02:52:10;;;;;;;16.48;11.60;;;0.70;98.00;;;;;;5031809;28;20040;-71
2020/12/02 02:54:35;;;;;;;17.60;11.85;;;0.70;98.00;;;;;;5034101;28;20029;-71
2020/12/02 02:57:01;;;;;;;21.17;13.80;;;0.60;98.00;;;;;;5032926;28;20054;-71
2020/12/02 02:59:26;;;;;;;18.73;11.90;;;0.60;98.00;;;;;;5034245;28;20044;-71
2020/12/02 03:01:52;;;;;;;21.10;13.80;;;0.60;98.00;;;;;;5031175;28;20025;-71
2020/12/02 03:04:18;;;;;;;19.83;12.52;;;0.50;98.00;;;;;;5038579;28;20018;-71
2020/12/02 03:06:44;;;;;;;21.65;13.23;;;0.50;98.00;;;;;;5037751;28;20307;-69
2020/12/02 03:09:13;;;;;;;54.40;14.15;;;0.50;98.00;;;;;;5036831;28;20072;-70
2020/12/02 03:11:44;;;;;;;30.63;15.10;;;0.40;98.00;;;;;;5029386;28;20330;-70
2020/12/02 03:14:11;;;;;;;23.92;14.43;;;0.40;98.00;;;;;;5032720;28;20072;-70
2020/12/02 03:16:46;;;;;;;23.08;14.95;;;0.40;98.00;;;;;;5030487;28;20116;-70
2020/12/02 03:19:19;;;;;;;24.45;15.20;;;0.40;98.00;;;;;;5032624;28;20036;-70
2020/12/02 03:21:46;;;;;;;22.40;14.88;;;0.40;98.00;;;;;;5033199;28;20030;-70
2020/12/02 03:24:13;;;;;;;20.88;13.38;;;0.40;98.00;;;;;;5033196;28;20292;-70
2020/12/02 03:26:39;;;;;;;22.77;14.02;;;0.50;98.00;;;;;;5032908;28;20365;-70
2020/12/02 03:29:08;;;;;;;19.38;12.27;;;0.50;98.00;;;;;;5033029;28;20029;-69
2020/12/02 03:31:35;;;;;;;18.88;12.70;;;0.50;98.00;;;;;;5032293;28;20075;-70
2020/12/02 03:34:11;;;;;;;17.98;12.48;;;0.50;98.00;;;;;;5034850;28;20112;-69
2020/12/02 03:36:38;;;;;;;22.48;12.80;;;0.50;98.00;;;;;;5029678;28;20041;-70
2020/12/02 03:39:07;;;;;;;19.20;12.32;;;0.50;98.00;;;;;;5031969;28;20446;-70
2020/12/02 03:41:34;;;;;;;19.08;11.75;;;0.50;98.00;;;;;;5015993;28;20306;-70
2020/12/02 03:44:00;;;;;;;16.55;11.68;;;0.50;98.00;;;;;;5032998;28;20029;-70
2020/12/02 03:46:26;;;;;;;16.88;11.23;;;0.50;98.00;;;;;;5031434;28;20108;-70
2020/12/02 03:48:52;;;;;;;16.50;11.23;;;0.60;98.00;;;;;;5032463;28;20026;-70
2020/12/02 03:51:18;;;;;;;19.80;12.13;;;0.50;98.00;;;;;;5032177;28;20032;-70
2020/12/02 03:53:45;;;;;;;18.52;12.85;;;0.50;98.00;;;;;;5032295;28;20045;-70
2020/12/02 03:56:14;;;;;;;21.58;12.02;;;0.60;98.00;;;;;;5032265;28;20049;-70
2020/12/02 03:58:41;;;;;;;20.33;12.57;;;0.50;98.00;;;;;;5032705;28;20492;-70
2020/12/02 04:01:07;;;;;;;18.92;12.27;;;0.50;98.00;;;;;;5030616;28;20040;-70
2020/12/02 04:03:37;;;;;;;20.48;13.95;;;0.50;98.00;;;;;;5032789;28;20288;-69
2020/12/02 04:06:05;;;;;;;22.88;14.85;;;0.50;98.00;;;;;;5032045;28;20022;-70
2020/12/02 04:08:31;;;;;;;23.20;14.30;;;0.40;98.00;;;;;;5014639;28;20044;-70
2020/12/02 04:10:59;;;;;;;22.15;15.45;;;0.50;98.00;;;;;;5032484;28;20034;-70
2020/12/02 04:13:26;;;;;;;21.38;15.50;;;0.50;98.00;;;;;;5032195;28;20431;-70
2020/12/02 04:15:52;;;;;;;26.08;18.73;;;0.50;98.00;;;;;;5031111;28;20026;-69
2020/12/02 04:18:18;;;;;;;18.10;11.95;;;0.60;98.00;;;;;;5032169;28;20025;-68
2020/12/02 04:20:44;;;;;;;23.48;15.45;;;0.60;98.00;;;;;;5032348;28;20032;-69
2020/12/02 04:23:12;;;;;;;16.15;10.70;;;0.60;98.00;;;;;;5042926;28;20036;-69
2020/12/02 04:25:38;;;;;;;18.05;10.85;;;0.60;98.00;;;;;;5033582;28;20060;-69
2020/12/02 04:28:05;;;;;;;14.98;10.90;;;0.70;98.00;;;;;;5032279;28;20033;-69
2020/12/02 04:30:32;;;;;;;16.20;11.25;;;0.70;98.00;;;;;;5029647;28;20033;-69
2020/12/02 04:32:58;;;;;;;18.17;10.98;;;0.70;98.00;;;;;;5031611;28;20083;-69
2020/12/02 04:35:24;;;;;;;16.65;11.40;;;0.70;98.00;;;;;;5030250;28;20029;-69
2020/12/02 04:37:50;;;;;;;35.95;20.70;;;0.70;98.00;;;;;;5031647;28;20037;-69
2020/12/02 04:40:33;;;;;;;22.38;14.65;;;0.70;98.00;;;;;;5031800;28;20017;-69
2020/12/02 04:43:32;;;;;;;17.70;11.20;;;0.70;98.00;;;;;;5030230;28;20022;-69
2020/12/02 04:45:59;;;;;;;19.88;12.20;;;0.70;98.00;;;;;;5031151;28;20025;-69
2020/12/02 04:48:30;;;;;;;19.52;11.88;;;0.80;98.00;;;;;;5031510;28;20034;-69
2020/12/02 04:51:20;;;;;;;18.92;11.70;;;0.80;98.00;;;;;;5030911;28;20061;-69
2020/12/02 04:53:50;;;;;;;18.98;12.00;;;0.80;98.00;;;;;;5029626;28;20029;-69
2020/12/02 04:56:16;;;;;;;20.50;12.57;;;0.80;98.00;;;;;;5030523;28;20057;-69
2020/12/02 04:58:42;;;;;;;20.13;12.43;;;0.80;98.00;;;;;;5029809;28;20052;-68
2020/12/02 05:01:20;;;;;;;20.80;11.20;;;0.80;98.00;;;;;;5030676;28;20030;-69
2020/12/02 05:04:06;;;;;;;21.85;12.77;;;0.70;98.00;;;;;;5031049;28;20021;-68
2020/12/02 05:06:39;;;;;;;22.38;14.73;;;0.80;98.00;;;;;;5033524;28;20053;-70
2020/12/02 05:09:25;;;;;;;20.70;12.48;;;0.70;98.00;;;;;;5030388;28;20426;-69
2020/12/02 05:12:20;;;;;;;19.15;12.30;;;0.70;98.00;;;;;;5030041;28;20028;-69
2020/12/02 05:14:48;;;;;;;19.52;11.43;;;0.70;98.00;;;;;;5030906;28;20021;-69
2020/12/02 05:17:28;;;;;;;19.02;11.05;;;0.70;98.00;;;;;;5028385;28;20033;-69
2020/12/02 05:20:09;;;;;;;17.10;8.63;;;0.70;98.00;;;;;;5030607;28;20037;-69
2020/12/02 05:22:46;;;;;;;14.95;8.80;;;0.70;98.00;;;;;;5031955;28;20021;-69
2020/12/02 05:25:32;;;;;;;13.43;7.80;;;0.60;98.00;;;;;;5030929;28;20421;-69
2020/12/02 05:28:25;;;;;;;10.75;6.70;;;0.50;98.00;;;;;;5031010;28;20048;-69
2020/12/02 05:31:05;;;;;;;12.35;7.28;;;0.40;98.00;;;;;;5028885;28;20045;-69
2020/12/02 05:33:33;;;;;;;13.77;7.88;;;0.40;98.00;;;;;;5029725;28;20334;-68
2020/12/02 05:36:18;;;;;;;12.68;8.05;;;0.40;98.00;;;;;;5029423;28;20161;-69
2020/12/02 05:39:23;;;;;;;12.63;8.70;;;0.40;98.00;;;;;;5030808;28;20053;-68
2020/12/02 05:41:53;;;;;;;13.18;8.07;;;0.40;98.00;;;;;;5029704;28;20037;-68
2020/12/02 05:44:32;;;;;;;12.60;7.43;;;0.40;98.00;;;;;;5052382;28;20027;-69
2020/12/02 05:47:01;;;;;;;13.05;8.57;;;0.30;98.00;;;;;;5024678;28;20065;-68
2020/12/02 05:49:39;;;;;;;13.00;8.55;;;0.30;98.00;;;;;;5052559;28;20146;-69
2020/12/02 05:52:39;;;;;;;14.70;8.15;;;0.30;98.00;;;;;;5029697;28;20030;-69
2020/12/02 05:55:22;;;;;;;13.48;8.20;;;0.30;98.00;;;;;;5055557;28;20064;-68
2020/12/02 05:57:57;;;;;;;11.45;7.30;;;0.30;98.00;;;;;;5026228;28;20033;-68
2020/12/02 06:00:26;;;;;;;11.35;7.55;;;0.30;98.00;;;;;;5029076;28;20053;-68
2020/12/02 06:03:12;;;;;;;12.02;8.32;;;0.20;98.00;;;;;;5029178;28;20056;-68
2020/12/02 06:05:38;;;;;;;14.20;9.25;;;0.20;98.00;;;;;;5030061;28;20319;-69
2020/12/02 06:08:06;;;;;;;15.48;10.15;;;0.30;98.00;;;;;;5030896;28;20022;-69
2020/12/02 06:10:42;;;;;;;17.65;10.25;;;0.20;98.00;;;;;;5030384;28;20029;-69
2020/12/02 06:13:32;;;;;;;13.32;8.50;;;0.20;98.00;;;;;;5029916;28;20550;-69
2020/12/02 06:15:58;;;;;;;14.45;7.90;;;0.20;98.00;;;;;;5029154;28;20397;-70
2020/12/02 06:18:37;;;;;;;12.38;7.93;;;0.20;98.00;;;;;;5030473;28;20125;-69
2020/12/02 06:21:06;;;;;;;12.02;7.57;;;0.30;98.00;;;;;;5030342;28;20025;-68
2020/12/02 06:23:43;;;;;;;12.10;7.95;;;0.20;98.00;;;;;;5029229;28;20033;-69
2020/12/02 06:26:09;;;;;;;11.52;7.82;;;0.20;98.00;;;;;;5030614;28;20026;-69
2020/12/02 06:28:35;;;;;;;14.40;9.10;;;0.10;98.00;;;;;;5030328;28;20083;-68
2020/12/02 06:31:12;;;;;;;13.77;9.07;;;0.10;98.00;;;;;;5028045;28;20021;-68
2020/12/02 06:33:40;;;;;;;14.43;9.05;;;0.10;98.00;;;;;;5030485;28;20053;-68
2020/12/02 06:36:20;;;;;;;13.43;8.25;;;0.10;98.00;;;;;;5030096;28;20354;-68
2020/12/02 06:38:50;;;;;;;13.88;8.93;;;0.10;98.00;;;;;;5029996;28;20030;-68
2020/12/02 06:41:31;;;;;;;15.32;9.88;;;0.10;98.00;;;;;;5030000;28;20022;-68
2020/12/02 06:44:09;;;;;;;16.15;9.75;;;0.10;98.00;;;;;;5030058;28;20018;-69
2020/12/02 06:47:00;;;;;;;14.63;8.65;;;0.10;98.00;;;;;;5029497;28;20041;-68
2020/12/02 06:49:29;;;;;;;14.48;9.30;;;0.10;98.00;;;;;;5031008;28;20057;-68
2020/12/02 06:52:09;;;;;;;15.45;9.60;;;0.10;98.00;;;;;;5030241;28;20030;-68
2020/12/02 06:54:37;;;;;;;17.63;11.05;;;0.10;98.00;;;;;;5029974;28;20048;-69
2020/12/02 06:57:18;;;;;;;14.45;8.65;;;0.10;98.00;;;;;;5030366;28;20056;-68
2020/12/02 06:59:59;;;;;;;12.70;8.57;;;0.20;98.00;;;;;;5029422;28;20043;-68
2020/12/02 07:02:32;;;;;;;14.75;10.35;;;0.20;98.00;;;;;;5028492;28;20127;-68
2020/12/02 07:05:01;;;;;;;16.25;9.70;;;0.20;98.00;;;;;;5030184;28;20047;-68
2020/12/02 07:07:27;;;;;;;17.35;10.38;;;0.20;98.00;;;;;;5029942;28;20167;-68
2020/12/02 07:09:53;;;;;;;18.23;10.63;;;0.20;98.00;;;;;;5031557;28;20569;-68
2020/12/02 07:12:23;;;;;;;15.88;10.60;;;0.20;98.00;;;;;;5037439;28;20333;-68
2020/12/02 07:14:50;;;;;;;18.02;11.07;;;0.20;98.00;;;;;;5038574;28;20033;-68
2020/12/02 07:17:21;;;;;;;17.55;11.32;;;0.20;98.00;;;;;;5037387;28;20068;-68
2020/12/02 07:19:48;;;;;;;20.65;12.02;;;0.20;98.00;;;;;;5037381;28;20021;-68
2020/12/02 07:22:20;;;;;;;17.13;10.77;;;0.20;98.00;;;;;;5038478;28;20018;-68
2020/12/02 07:24:49;;;;;;;15.75;10.40;;;0.20;98.00;;;;;;5040859;28;20017;-68
2020/12/02 07:27:19;;;;;;;16.98;10.55;;;0.20;98.00;;;;;;5038537;28;20017;-68
2020/12/02 07:29:45;;;;;;;17.63;10.65;;;0.20;98.00;;;;;;5038047;28;20033;-68
2020/12/02 07:32:22;;;;;;;17.38;10.90;;;0.20;98.00;;;;;;5037232;28;20478;-68
2020/12/02 07:34:49;;;;;;;19.25;10.93;;;0.20;98.00;;;;;;5038563;28;20393;-68
2020/12/02 07:37:19;;;;;;;17.75;10.27;;;0.20;98.00;;;;;;5037301;28;20045;-67
2020/12/02 07:40:10;;;;;;;16.15;9.90;;;0.20;98.00;;;;;;5036943;28;20029;-68
2020/12/02 07:42:40;;;;;;;12.02;8.43;;;0.20;98.00;;;;;;5038094;28;20044;-68
2020/12/02 07:45:23;;;;;;;13.02;8.73;;;0.20;98.00;;;;;;5038256;28;20021;-68
2020/12/02 07:47:58;;;;;;;10.75;7.45;;;0.30;98.00;;;;;;5034610;28;20021;-68
2020/12/02 07:50:44;;;;;;;12.80;8.32;;;0.30;98.00;;;;;;5020016;28;20041;-68
2020/12/02 07:53:25;;;;;;;13.95;9.45;;;0.40;98.00;;;;;;5038166;28;20075;-68
2020/12/02 07:55:53;;;;;;;12.00;7.45;;;0.40;98.00;;;;;;5037644;28;20091;-67
2020/12/02 07:58:39;;;;;;;11.55;7.50;;;0.40;98.00;;;;;;5036779;28;20505;-68
2020/12/02 08:01:16;;;;;;;11.48;7.32;;;0.40;98.00;;;;;;5028357;28;20029;-68
2020/12/02 08:03:43;;;;;;;11.77;8.23;;;0.40;98.00;;;;;;5037236;28;20025;-68
2020/12/02 08:06:40;;;;;;;12.15;7.30;;;0.40;98.00;;;;;;5037398;28;20433;-68
2020/12/02 08:09:06;;;;;;;16.13;8.05;;;0.40;98.00;;;;;;5037631;28;20476;-68
2020/12/02 08:11:32;;;;;;;14.90;8.23;;;0.40;98.00;;;;;;5037593;28;20108;-68
2020/12/02 08:13:58;;;;;;;12.88;8.57;;;0.40;98.00;;;;;;5036255;28;20041;-68
2020/12/02 08:16:29;;;;;;;10.98;7.70;;;0.40;98.00;;;;;;5035178;28;20092;-68
2020/12/02 08:18:57;;;;;;;11.88;7.78;;;0.40;98.00;;;;;;5037614;28;20108;-67
2020/12/02 08:21:27;;;;;;;12.50;7.63;;;0.40;98.00;;;;;;5036622;28;20018;-68
2020/12/02 08:24:30;;;;;;;12.35;7.75;;;0.40;98.00;;;;;;5036772;28;20296;-68
2020/12/02 08:26:56;;;;;;;15.20;8.95;;;0.40;98.00;;;;;;5037083;28;20029;-67
2020/12/02 08:29:25;;;;;;;19.55;14.15;;;0.30;98.00;;;;;;5037225;28;20052;-68
2020/12/02 08:32:07;;;;;;;14.40;9.63;;;0.30;98.00;;;;;;5034894;28;20025;-68
2020/12/02 08:34:36;;;;;;;14.15;8.50;;;0.40;98.00;;;;;;5037176;28;20137;-68
2020/12/02 08:37:14;;;;;;;14.75;8.98;;;0.40;98.00;;;;;;5036276;28;20030;-68
2020/12/02 08:39:48;;;;;;;14.27;8.75;;;0.50;98.00;;;;;;5036688;28;20031;-68
2020/12/02 08:42:31;;;;;;;13.48;9.30;;;0.50;98.00;;;;;;5036018;28;20033;-67
2020/12/02 08:45:13;;;;;;;12.77;8.77;;;0.50;98.00;;;;;;5037019;28;20438;-68
2020/12/02 08:47:39;;;;;;;15.00;8.75;;;0.60;98.00;;;;;;5035779;28;20419;-68
2020/12/02 08:50:08;;;;;;;13.77;9.43;;;0.60;98.00;;;;;;5036318;28;20021;-68
2020/12/02 08:52:35;;;;;;;15.30;9.38;;;0.60;98.00;;;;;;5036966;28;20343;-68
2020/12/02 08:55:01;;;;;;;19.65;10.52;;;0.60;98.00;;;;;;5036569;28;20033;-68
2020/12/02 08:57:26;;;;;;;16.67;10.07;;;0.60;98.00;;;;;;5036850;28;20311;-68
2020/12/02 08:59:52;;;;;;;23.42;12.82;;;0.60;98.00;;;;;;5036426;28;20026;-68
2020/12/02 09:02:18;;;;;;;16.58;11.95;;;0.60;98.00;;;;;;5035272;28;20018;-67
2020/12/02 09:04:46;;;;;;;17.42;12.13;;;0.60;98.00;;;;;;5036544;28;20028;-67
2020/12/02 09:07:14;;;;;;;20.60;9.98;;;0.50;98.00;;;;;;5035597;28;20104;-68
2020/12/02 09:09:40;;;;;;;13.25;8.90;;;0.60;98.00;;;;;;5036314;28;20327;-68
2020/12/02 09:12:07;;;;;;;18.02;10.68;;;0.70;98.00;;;;;;5035413;28;20511;-67
2020/12/02 09:14:33;;;;;;;9.45;5.93;;;0.80;98.00;;;;;;5036002;28;20108;-68
2020/12/02 09:16:59;;;;;;;11.57;6.50;;;1.00;98.00;;;;;;5035430;28;20017;-68
2020/12/02 09:19:24;;;;;;;15.65;8.02;;;1.20;98.00;;;;;;5034980;28;20029;-68
2020/12/02 09:21:50;;;;;;;17.30;10.35;;;1.30;98.00;;;;;;5036580;28;20025;-68
2020/12/02 09:24:18;;;;;;;10.50;6.30;;;1.40;98.00;;;;;;5036309;28;20035;-68
2020/12/02 09:26:44;;;;;;;7.45;5.55;;;1.60;98.00;;;;;;5035053;28;20036;-68
2020/12/02 09:29:12;;;;;;;10.52;7.07;;;1.60;96.90;;;;;;5035966;28;20423;-68
2020/12/02 09:31:40;;;;;;;10.00;6.13;;;1.70;97.10;;;;;;5034601;28;20381;-68
2020/12/02 09:34:07;;;;;;;9.60;5.55;;;1.70;96.30;;;;;;5035366;28;20136;-68
2020/12/02 09:36:34;;;;;;;9.75;5.53;;;1.60;96.40;;;;;;5034996;28;20037;-68
2020/12/02 09:39:01;;;;;;;8.82;5.35;;;1.40;97.50;;;;;;5035975;28;20026;-68
2020/12/02 09:41:51;;;;;;;11.60;6.30;;;1.40;97.80;;;;;;5035720;28;20029;-68
2020/12/02 09:44:29;;;;;;;15.73;8.65;;;1.40;98.00;;;;;;5036186;28;20036;-68
2020/12/02 09:47:01;;;;;;;25.77;16.67;;;1.30;98.00;;;;;;5033553;28;20029;-68
2020/12/02 09:49:28;;;;;;;13.05;8.63;;;1.30;98.00;;;;;;5035712;28;20037;-68
2020/12/02 09:52:10;;;;;;;14.00;7.90;;;1.20;97.70;;;;;;5035325;28;20037;-68
2020/12/02 09:54:44;;;;;;;20.23;10.25;;;1.20;98.00;;;;;;5035707;28;20037;-68
2020/12/02 09:57:24;;;;;;;15.50;9.57;;;1.30;98.00;;;;;;5035561;28;20339;-68
2020/12/02 09:59:51;;;;;;;10.35;6.68;;;1.30;98.00;;;;;;5034360;28;20316;-69
2020/12/02 10:02:33;;;;;;;10.60;7.32;;;1.40;98.00;;;;;;5033367;28;20030;-68
2020/12/02 10:05:32;;;;;;;15.75;9.82;;;1.30;98.00;;;;;;5035084;28;20180;-68
2020/12/02 10:08:19;;;;;;;14.75;9.38;;;1.30;98.00;;;;;;5008593;28;20042;-68
2020/12/02 10:10:48;;;;;;;16.58;8.45;;;1.20;98.00;;;;;;5034414;28;20071;-68
2020/12/02 10:13:26;;;;;;;16.65;8.77;;;1.10;98.00;;;;;;5034447;28;20033;-68
2020/12/02 10:16:32;;;;;;;10.45;7.07;;;0.90;98.00;;;;;;5034162;28;20021;-68
2020/12/02 10:19:18;;;;;;;12.70;8.88;;;0.90;98.00;;;;;;5033947;28;20080;-67
2020/12/02 10:21:59;;;;;;;10.93;7.55;;;0.90;98.00;;;;;;5035228;28;20056;-68
2020/12/02 10:24:28;;;;;;;11.70;7.80;;;1.00;98.00;;;;;;5034333;28;20105;-68
2020/12/02 10:27:24;;;;;;;10.45;6.88;;;1.00;98.00;;;;;;5035638;28;20098;-68
2020/12/02 10:30:13;;;;;;;11.38;7.20;;;1.00;98.00;;;;;;5035012;28;20030;-68
2020/12/02 10:33:22;;;;;;;11.25;7.38;;;1.00;98.00;;;;;;5032807;28;20025;-68
2020/12/02 10:35:48;;;;;;;11.93;7.85;;;1.00;98.00;;;;;;5026267;28;20108;-68
2020/12/02 10:38:31;;;;;;;11.40;7.57;;;0.90;98.00;;;;;;5034883;28;20040;-69
2020/12/02 10:41:14;;;;;;;11.68;7.50;;;0.90;98.00;;;;;;5033803;28;20033;-69
2020/12/02 10:43:55;;;;;;;10.75;7.63;;;1.00;98.00;;;;;;5034024;28;20029;-68
2020/12/02 10:46:33;;;;;;;18.17;8.23;;;1.00;98.00;;;;;;5036052;28;20028;-69
2020/12/02 10:49:26;;;;;;;13.98;7.93;;;1.00;98.00;;;;;;5037229;28;20321;-69
2020/12/02 10:51:55;;;;;;;11.75;7.50;;;0.80;98.00;;;;;;5038758;28;20365;-70
2020/12/02 10:54:24;;;;;;;11.60;7.45;;;0.80;98.00;;;;;;5039219;28;20056;-70
2020/12/02 10:56:55;;;;;;;12.23;7.55;;;0.90;98.00;;;;;;5038713;28;20049;-70
2020/12/02 10:59:22;;;;;;;14.27;8.55;;;0.90;98.00;;;;;;5028055;28;20329;-70
2020/12/02 11:01:49;;;;;;;14.98;9.68;;;0.80;98.00;;;;;;5037755;28;20036;-70
2020/12/02 11:04:16;;;;;;;12.20;7.70;;;0.80;98.00;;;;;;5038764;28;20441;-70
2020/12/02 11:07:12;;;;;;;16.60;9.48;;;0.80;98.00;;;;;;5037667;28;20062;-71
2020/12/02 11:10:01;;;;;;;13.18;7.95;;;0.70;98.00;;;;;;5035462;28;20026;-70
2020/12/02 11:12:42;;;;;;;15.70;9.57;;;0.70;98.00;;;;;;5038364;28;20296;-71
2020/12/02 11:15:23;;;;;;;17.38;10.73;;;0.80;98.00;;;;;;5038655;28;20018;-70
2020/12/02 11:18:10;;;;;;;16.65;10.43;;;0.80;98.00;;;;;;5024268;28;20029;-70
2020/12/02 11:20:56;;;;;;;19.75;11.43;;;0.80;98.00;;;;;;5038352;28;20068;-71
2020/12/02 11:23:38;;;;;;;13.70;9.48;;;0.70;98.00;;;;;;5038602;28;20028;-71
2020/12/02 11:26:10;;;;;;;16.15;9.40;;;0.70;98.00;;;;;;5038262;28;20049;-71
2020/12/02 11:28:46;;;;;;;16.30;10.07;;;0.70;98.00;;;;;;5038075;28;20037;-71
2020/12/02 11:31:32;;;;;;;18.98;12.02;;;0.80;98.00;;;;;;5036058;28;20048;-71
2020/12/02 11:34:36;;;;;;;26.00;12.63;;;0.80;98.00;;;;;;5037325;28;20040;-71
2020/12/02 11:37:05;;;;;;;20.58;11.77;;;0.90;98.00;;;;;;5037008;28;20426;-70
2020/12/02 11:40:04;;;;;;;18.27;11.82;;;1.00;98.00;;;;;;5036874;28;20087;-71
2020/12/02 11:42:41;;;;;;;20.08;11.95;;;1.00;98.00;;;;;;5022780;28;20120;-71
2020/12/02 11:45:16;;;;;;;22.67;14.05;;;0.90;98.00;;;;;;5036860;28;20331;-70
2020/12/02 11:48:04;;;;;;;18.60;11.98;;;0.90;98.00;;;;;;5036841;28;20025;-70
2020/12/02 11:50:37;;;;;;;21.67;12.35;;;1.10;98.00;;;;;;5036921;28;20479;-70
2020/12/02 11:53:40;;;;;;;19.73;12.85;;;1.10;98.00;;;;;;5037769;28;20039;-70
2020/12/02 11:56:17;;;;;;;19.10;11.68;;;1.10;98.00;;;;;;5020637;28;20053;-70
2020/12/02 11:58:43;;;;;;;21.17;12.25;;;1.10;98.00;;;;;;5039135;28;20033;-70
2020/12/02 12:01:20;;;;;;;20.95;12.35;;;1.30;98.00;;;;;;5039101;28;20112;-70
2020/12/02 12:03:59;;;;;;;23.88;12.20;;;1.30;98.00;;;;;;5037107;28;20036;-70
2020/12/02 12:06:30;;;;;;;18.00;11.32;;;1.30;98.00;;;;;;5037278;28;20026;-70
2020/12/02 12:09:16;;;;;;;19.70;12.10;;;1.30;98.00;;;;;;5032959;28;20029;-70
2020/12/02 12:11:42;;;;;;;20.17;11.80;;;1.30;98.00;;;;;;5036062;28;20029;-70
2020/12/02 12:14:26;;;;;;;18.42;12.40;;;1.10;98.00;;;;;;5036673;28;20397;-70
2020/12/02 12:17:40;;;;;;;19.40;12.93;;;1.10;98.00;;;;;;5023646;28;20318;-71
2020/12/02 12:20:23;;;;;;;20.40;12.00;;;1.10;98.00;;;;;;5026697;28;20492;-69
2020/12/02 12:23:00;;;;;;;16.92;10.93;;;1.00;98.00;;;;;;5034053;28;20032;-70
2020/12/02 12:25:32;;;;;;;17.88;11.43;;;1.00;98.00;;;;;;5033393;28;20121;-70
2020/12/02 12:28:02;;;;;;;21.45;13.35;;;1.10;98.00;;;;;;5034789;28;20029;-70
2020/12/02 12:30:28;;;;;;;21.88;13.60;;;1.00;98.00;;;;;;5037152;28;20032;-70
2020/12/02 12:33:14;;;;;;;24.38;12.95;;;0.90;98.00;;;;;;5033782;28;20300;-70
2020/12/02 12:35:52;;;;;;;23.65;13.15;;;0.80;98.00;;;;;;5047855;28;20082;-69
2020/12/02 12:38:20;;;;;;;22.45;12.20;;;0.70;98.00;;;;;;5041295;28;20020;-70
2020/12/02 12:40:59;;;;;;;21.75;13.27;;;0.80;98.00;;;;;;5033727;28;20022;-70
2020/12/02 12:43:34;;;;;;;22.05;13.73;;;0.80;98.00;;;;;;5032822;28;20187;-70
2020/12/02 12:46:10;;;;;;;19.13;12.00;;;0.80;98.00;;;;;;5031859;28;20504;-70
2020/12/02 12:48:37;;;;;;;17.73;12.07;;;0.90;98.00;;;;;;5033882;28;20517;-70
2020/12/02 12:51:03;;;;;;;22.17;13.93;;;0.90;98.00;;;;;;5034338;28;20041;-69
2020/12/02 12:53:32;;;;;;;18.27;11.35;;;0.80;98.00;;;;;;5031916;28;20033;-69
2020/12/02 12:55:59;;;;;;;17.50;12.05;;;0.80;98.00;;;;;;5034050;28;20060;-70
2020/12/02 12:58:29;;;;;;;18.42;11.30;;;0.70;98.00;;;;;;5033627;28;20033;-70
2020/12/02 13:00:57;;;;;;;17.75;11.80;;;0.80;98.00;;;;;;5032992;28;20361;-71
2020/12/02 13:03:27;;;;;;;19.98;12.52;;;0.90;98.00;;;;;;5032757;28;20414;-71
2020/12/02 13:06:01;;;;;;;15.68;11.45;;;0.80;98.00;;;;;;5033872;28;20026;-71
2020/12/02 13:08:42;;;;;;;19.50;11.88;;;0.80;97.80;;;;;;5033418;28;20022;-70
2020/12/02 13:11:17;;;;;;;18.23;12.05;;;0.70;97.40;;;;;;5033855;28;20026;-70
2020/12/02 13:14:05;;;;;;;21.90;12.45;;;0.70;97.50;;;;;;5012977;28;20044;-70
2020/12/02 13:16:45;;;;;;;19.35;11.73;;;0.70;97.70;;;;;;5012346;28;20018;-70
2020/12/02 13:19:18;;;;;;;19.50;12.05;;;0.70;97.80;;;;;;5018991;28;20364;-70
2020/12/02 13:21:55;;;;;;;19.40;11.90;;;0.60;97.70;;;;;;5017882;28;20064;-70
2020/12/02 13:24:46;;;;;;;25.27;12.85;;;0.60;98.00;;;;;;5033406;28;20050;-70
2020/12/02 13:27:45;;;;;;;19.33;12.57;;;0.60;97.60;;;;;;5033613;28;20470;-70
2020/12/02 13:30:24;;;;;;;19.30;12.00;;;0.50;98.00;;;;;;5032854;28;20040;-70